sensor_id;sensor_type;location;lat;lon;timestamp;P1;durP1;ratioP1;P2;durP2;ratioP2
72085;SDS011;64750;52.134;5.424;2023-11-19T00:01:25;11.60;;;3.03;;
72085;SDS011;64750;52.134;5.424;2023-11-19T00:03:51;13.55;;;3.63;;
72085;SDS011;64750;52.134;5.424;2023-11-19T00:06:18;9.45;;;3.10;;
72085;SDS011;64750;52.134;5.424;2023-11-19T00:08:44;8.43;;;3.78;;
72085;SDS011;64750;52.134;5.424;2023-11-19T00:11:11;9.23;;;3.00;;
72085;SDS011;64750;52.134;5.424;2023-11-19T00:13:41;8.35;;;2.97;;
72085;SDS011;64750;52.134;5.424;2023-11-19T00:16:08;13.45;;;3.05;;
72085;SDS011;64750;52.134;5.424;2023-11-19T00:18:36;12.82;;;2.83;;
72085;SDS011;64750;52.134;5.424;2023-11-19T00:21:02;15.15;;;3.42;;
72085;SDS011;64750;52.134;5.424;2023-11-19T00:23:29;16.43;;;3.23;;
72085;SDS011;64750;52.134;5.424;2023-11-19T00:25:55;13.32;;;2.75;;
72085;SDS011;64750;52.134;5.424;2023-11-19T00:28:21;10.80;;;2.60;;
72085;SDS011;64750;52.134;5.424;2023-11-19T00:30:48;15.07;;;3.17;;
72085;SDS011;64750;52.134;5.424;2023-11-19T00:33:15;13.93;;;2.80;;
72085;SDS011;64750;52.134;5.424;2023-11-19T00:35:42;10.73;;;2.80;;
72085;SDS011;64750;52.134;5.424;2023-11-19T00:38:08;9.77;;;2.05;;
72085;SDS011;64750;52.134;5.424;2023-11-19T00:40:34;13.77;;;3.22;;
72085;SDS011;64750;52.134;5.424;2023-11-19T00:43:01;14.43;;;2.97;;
72085;SDS011;64750;52.134;5.424;2023-11-19T00:45:28;14.90;;;2.45;;
72085;SDS011;64750;52.134;5.424;2023-11-19T00:47:54;13.40;;;2.90;;
72085;SDS011;64750;52.134;5.424;2023-11-19T00:50:20;14.85;;;2.65;;
72085;SDS011;64750;52.134;5.424;2023-11-19T00:52:47;8.95;;;2.17;;
72085;SDS011;64750;52.134;5.424;2023-11-19T00:55:13;24.63;;;3.25;;
72085;SDS011;64750;52.134;5.424;2023-11-19T00:57:40;21.10;;;2.60;;
72085;SDS011;64750;52.134;5.424;2023-11-19T01:00:06;18.23;;;3.17;;
72085;SDS011;64750;52.134;5.424;2023-11-19T01:02:41;9.82;;;2.17;;
72085;SDS011;64750;52.134;5.424;2023-11-19T01:05:08;16.70;;;2.92;;
72085;SDS011;64750;52.134;5.424;2023-11-19T01:07:35;16.23;;;2.60;;
72085;SDS011;64750;52.134;5.424;2023-11-19T01:10:01;19.40;;;2.95;;
72085;SDS011;64750;52.134;5.424;2023-11-19T01:12:29;11.23;;;2.27;;
72085;SDS011;64750;52.134;5.424;2023-11-19T01:14:57;16.92;;;2.10;;
72085;SDS011;64750;52.134;5.424;2023-11-19T01:17:24;14.65;;;2.75;;
72085;SDS011;64750;52.134;5.424;2023-11-19T01:19:50;18.85;;;2.95;;
72085;SDS011;64750;52.134;5.424;2023-11-19T01:22:17;9.25;;;2.55;;
72085;SDS011;64750;52.134;5.424;2023-11-19T01:24:45;13.43;;;2.70;;
72085;SDS011;64750;52.134;5.424;2023-11-19T01:27:11;20.38;;;3.45;;
72085;SDS011;64750;52.134;5.424;2023-11-19T01:29:38;19.08;;;3.92;;
72085;SDS011;64750;52.134;5.424;2023-11-19T01:32:05;21.67;;;2.92;;
72085;SDS011;64750;52.134;5.424;2023-11-19T01:34:32;18.13;;;2.30;;
72085;SDS011;64750;52.134;5.424;2023-11-19T01:36:59;17.53;;;2.77;;
72085;SDS011;64750;52.134;5.424;2023-11-19T01:39:25;24.27;;;3.50;;
72085;SDS011;64750;52.134;5.424;2023-11-19T01:41:52;24.02;;;3.22;;
72085;SDS011;64750;52.134;5.424;2023-11-19T01:44:18;23.30;;;2.60;;
72085;SDS011;64750;52.134;5.424;2023-11-19T01:46:45;22.95;;;2.90;;
72085;SDS011;64750;52.134;5.424;2023-11-19T01:49:16;28.03;;;2.70;;
72085;SDS011;64750;52.134;5.424;2023-11-19T01:51:45;24.83;;;3.33;;
72085;SDS011;64750;52.134;5.424;2023-11-19T01:54:14;18.02;;;3.20;;
72085;SDS011;64750;52.134;5.424;2023-11-19T01:56:41;22.13;;;3.38;;
72085;SDS011;64750;52.134;5.424;2023-11-19T01:59:09;27.38;;;2.80;;
72085;SDS011;64750;52.134;5.424;2023-11-19T02:01:37;25.50;;;2.77;;
72085;SDS011;64750;52.134;5.424;2023-11-19T02:04:06;24.05;;;3.17;;
72085;SDS011;64750;52.134;5.424;2023-11-19T02:06:34;30.60;;;3.90;;
72085;SDS011;64750;52.134;5.424;2023-11-19T02:09:06;22.63;;;4.03;;
72085;SDS011;64750;52.134;5.424;2023-11-19T02:11:34;25.20;;;3.53;;
72085;SDS011;64750;52.134;5.424;2023-11-19T02:14:01;27.20;;;3.20;;
72085;SDS011;64750;52.134;5.424;2023-11-19T02:16:29;26.95;;;3.00;;
72085;SDS011;64750;52.134;5.424;2023-11-19T02:18:56;25.20;;;3.28;;
72085;SDS011;64750;52.134;5.424;2023-11-19T02:21:23;25.25;;;2.83;;
72085;SDS011;64750;52.134;5.424;2023-11-19T02:23:49;24.05;;;2.78;;
72085;SDS011;64750;52.134;5.424;2023-11-19T02:28:49;25.17;;;2.65;;
72085;SDS011;64750;52.134;5.424;2023-11-19T02:31:16;18.02;;;2.72;;
72085;SDS011;64750;52.134;5.424;2023-11-19T02:33:42;20.95;;;3.28;;
72085;SDS011;64750;52.134;5.424;2023-11-19T02:36:09;26.95;;;3.50;;
72085;SDS011;64750;52.134;5.424;2023-11-19T02:38:36;24.53;;;3.87;;
72085;SDS011;64750;52.134;5.424;2023-11-19T02:41:03;26.38;;;3.70;;
72085;SDS011;64750;52.134;5.424;2023-11-19T02:43:33;23.90;;;3.20;;
72085;SDS011;64750;52.134;5.424;2023-11-19T02:46:03;22.95;;;3.20;;
72085;SDS011;64750;52.134;5.424;2023-11-19T02:48:37;26.42;;;3.70;;
72085;SDS011;64750;52.134;5.424;2023-11-19T02:51:04;35.97;;;3.97;;
72085;SDS011;64750;52.134;5.424;2023-11-19T02:53:35;31.27;;;3.92;;
72085;SDS011;64750;52.134;5.424;2023-11-19T02:56:03;19.77;;;4.07;;
72085;SDS011;64750;52.134;5.424;2023-11-19T02:58:51;23.35;;;3.53;;
72085;SDS011;64750;52.134;5.424;2023-11-19T03:01:21;29.17;;;4.35;;
72085;SDS011;64750;52.134;5.424;2023-11-19T03:03:58;24.93;;;3.80;;
72085;SDS011;64750;52.134;5.424;2023-11-19T03:06:25;20.20;;;3.83;;
72085;SDS011;64750;52.134;5.424;2023-11-19T03:08:53;27.25;;;3.33;;
72085;SDS011;64750;52.134;5.424;2023-11-19T03:11:20;34.08;;;4.40;;
72085;SDS011;64750;52.134;5.424;2023-11-19T03:13:47;22.83;;;3.15;;
72085;SDS011;64750;52.134;5.424;2023-11-19T03:16:13;22.90;;;2.73;;
72085;SDS011;64750;52.134;5.424;2023-11-19T03:18:40;22.98;;;3.75;;
72085;SDS011;64750;52.134;5.424;2023-11-19T03:21:07;26.65;;;4.13;;
72085;SDS011;64750;52.134;5.424;2023-11-19T03:23:34;32.78;;;4.20;;
72085;SDS011;64750;52.134;5.424;2023-11-19T03:26:01;31.05;;;4.75;;
72085;SDS011;64750;52.134;5.424;2023-11-19T03:28:32;18.90;;;2.97;;
72085;SDS011;64750;52.134;5.424;2023-11-19T03:30:59;19.02;;;3.40;;
72085;SDS011;64750;52.134;5.424;2023-11-19T03:33:25;30.73;;;3.50;;
72085;SDS011;64750;52.134;5.424;2023-11-19T03:35:54;32.55;;;4.00;;
72085;SDS011;64750;52.134;5.424;2023-11-19T03:38:23;29.42;;;4.18;;
72085;SDS011;64750;52.134;5.424;2023-11-19T03:40:50;24.93;;;3.93;;
72085;SDS011;64750;52.134;5.424;2023-11-19T03:43:17;30.48;;;3.67;;
72085;SDS011;64750;52.134;5.424;2023-11-19T03:45:45;33.22;;;5.45;;
72085;SDS011;64750;52.134;5.424;2023-11-19T03:48:12;26.10;;;3.63;;
72085;SDS011;64750;52.134;5.424;2023-11-19T03:50:40;29.67;;;4.07;;
72085;SDS011;64750;52.134;5.424;2023-11-19T03:53:06;33.50;;;4.10;;
72085;SDS011;64750;52.134;5.424;2023-11-19T03:55:33;33.85;;;3.90;;
72085;SDS011;64750;52.134;5.424;2023-11-19T03:57:59;25.63;;;4.18;;
72085;SDS011;64750;52.134;5.424;2023-11-19T04:00:26;26.00;;;4.00;;
72085;SDS011;64750;52.134;5.424;2023-11-19T04:02:54;27.02;;;3.92;;
72085;SDS011;64750;52.134;5.424;2023-11-19T04:05:20;28.10;;;3.77;;
72085;SDS011;64750;52.134;5.424;2023-11-19T04:07:47;32.60;;;5.07;;
72085;SDS011;64750;52.134;5.424;2023-11-19T04:10:13;25.90;;;3.65;;
72085;SDS011;64750;52.134;5.424;2023-11-19T04:12:42;25.70;;;3.33;;
72085;SDS011;64750;52.134;5.424;2023-11-19T04:15:09;31.55;;;4.10;;
72085;SDS011;64750;52.134;5.424;2023-11-19T04:17:37;36.53;;;4.30;;
72085;SDS011;64750;52.134;5.424;2023-11-19T04:20:04;31.00;;;4.40;;
72085;SDS011;64750;52.134;5.424;2023-11-19T04:22:32;36.47;;;4.10;;
72085;SDS011;64750;52.134;5.424;2023-11-19T04:24:58;28.88;;;3.67;;
72085;SDS011;64750;52.134;5.424;2023-11-19T04:27:25;22.65;;;4.03;;
72085;SDS011;64750;52.134;5.424;2023-11-19T04:29:51;31.63;;;3.63;;
72085;SDS011;64750;52.134;5.424;2023-11-19T04:32:18;35.10;;;4.65;;
72085;SDS011;64750;52.134;5.424;2023-11-19T04:34:45;24.88;;;3.60;;
72085;SDS011;64750;52.134;5.424;2023-11-19T04:37:11;29.80;;;3.58;;
72085;SDS011;64750;52.134;5.424;2023-11-19T04:39:39;30.88;;;4.00;;
72085;SDS011;64750;52.134;5.424;2023-11-19T04:42:06;39.33;;;4.10;;
72085;SDS011;64750;52.134;5.424;2023-11-19T04:44:33;42.22;;;4.35;;
72085;SDS011;64750;52.134;5.424;2023-11-19T04:46:59;26.88;;;3.88;;
72085;SDS011;64750;52.134;5.424;2023-11-19T04:49:26;30.27;;;3.97;;
72085;SDS011;64750;52.134;5.424;2023-11-19T04:51:53;27.98;;;3.28;;
72085;SDS011;64750;52.134;5.424;2023-11-19T04:54:20;33.50;;;3.77;;
72085;SDS011;64750;52.134;5.424;2023-11-19T04:56:46;29.60;;;3.75;;
72085;SDS011;64750;52.134;5.424;2023-11-19T04:59:16;31.38;;;4.47;;
72085;SDS011;64750;52.134;5.424;2023-11-19T05:01:46;34.88;;;4.97;;
72085;SDS011;64750;52.134;5.424;2023-11-19T05:04:13;34.45;;;4.68;;
72085;SDS011;64750;52.134;5.424;2023-11-19T05:06:41;22.43;;;3.63;;
72085;SDS011;64750;52.134;5.424;2023-11-19T05:09:08;32.00;;;3.95;;
72085;SDS011;64750;52.134;5.424;2023-11-19T05:11:35;29.40;;;5.45;;
72085;SDS011;64750;52.134;5.424;2023-11-19T05:14:04;22.75;;;4.03;;
72085;SDS011;64750;52.134;5.424;2023-11-19T05:16:31;32.58;;;5.50;;
72085;SDS011;64750;52.134;5.424;2023-11-19T05:18:58;29.37;;;4.47;;
72085;SDS011;64750;52.134;5.424;2023-11-19T05:21:25;34.35;;;3.85;;
72085;SDS011;64750;52.134;5.424;2023-11-19T05:23:51;36.20;;;4.25;;
72085;SDS011;64750;52.134;5.424;2023-11-19T05:26:21;24.45;;;3.78;;
72085;SDS011;64750;52.134;5.424;2023-11-19T05:28:50;28.50;;;3.55;;
72085;SDS011;64750;52.134;5.424;2023-11-19T05:31:17;32.97;;;3.40;;
72085;SDS011;64750;52.134;5.424;2023-11-19T05:33:44;25.00;;;4.03;;
72085;SDS011;64750;52.134;5.424;2023-11-19T05:36:11;26.35;;;3.92;;
72085;SDS011;64750;52.134;5.424;2023-11-19T05:38:39;28.02;;;4.10;;
72085;SDS011;64750;52.134;5.424;2023-11-19T05:41:05;30.77;;;4.55;;
72085;SDS011;64750;52.134;5.424;2023-11-19T05:43:32;26.50;;;3.83;;
72085;SDS011;64750;52.134;5.424;2023-11-19T05:45:59;33.75;;;3.47;;
72085;SDS011;64750;52.134;5.424;2023-11-19T05:48:25;22.50;;;3.30;;
72085;SDS011;64750;52.134;5.424;2023-11-19T05:50:53;21.67;;;4.07;;
72085;SDS011;64750;52.134;5.424;2023-11-19T05:53:19;30.50;;;3.90;;
72085;SDS011;64750;52.134;5.424;2023-11-19T05:55:46;23.63;;;3.50;;
72085;SDS011;64750;52.134;5.424;2023-11-19T05:58:22;20.67;;;3.42;;
72085;SDS011;64750;52.134;5.424;2023-11-19T06:00:52;19.65;;;2.75;;
72085;SDS011;64750;52.134;5.424;2023-11-19T06:03:18;26.40;;;3.40;;
72085;SDS011;64750;52.134;5.424;2023-11-19T06:05:45;21.85;;;3.08;;
72085;SDS011;64750;52.134;5.424;2023-11-19T06:08:12;30.87;;;5.20;;
72085;SDS011;64750;52.134;5.424;2023-11-19T06:10:40;25.75;;;3.95;;
72085;SDS011;64750;52.134;5.424;2023-11-19T06:13:06;26.70;;;4.32;;
72085;SDS011;64750;52.134;5.424;2023-11-19T06:15:36;35.45;;;3.72;;
72085;SDS011;64750;52.134;5.424;2023-11-19T06:18:03;25.15;;;3.45;;
72085;SDS011;64750;52.134;5.424;2023-11-19T06:20:30;29.63;;;3.90;;
72085;SDS011;64750;52.134;5.424;2023-11-19T06:23:08;33.50;;;4.45;;
72085;SDS011;64750;52.134;5.424;2023-11-19T06:25:35;23.90;;;3.80;;
72085;SDS011;64750;52.134;5.424;2023-11-19T06:28:02;34.67;;;3.97;;
72085;SDS011;64750;52.134;5.424;2023-11-19T06:30:29;25.52;;;3.90;;
72085;SDS011;64750;52.134;5.424;2023-11-19T06:32:57;36.07;;;3.97;;
72085;SDS011;64750;52.134;5.424;2023-11-19T06:35:24;24.48;;;4.32;;
72085;SDS011;64750;52.134;5.424;2023-11-19T06:37:50;35.55;;;4.55;;
72085;SDS011;64750;52.134;5.424;2023-11-19T06:40:16;27.98;;;3.60;;
72085;SDS011;64750;52.134;5.424;2023-11-19T06:42:43;24.30;;;3.83;;
72085;SDS011;64750;52.134;5.424;2023-11-19T06:45:09;31.27;;;4.13;;
72085;SDS011;64750;52.134;5.424;2023-11-19T06:47:36;27.63;;;4.22;;
72085;SDS011;64750;52.134;5.424;2023-11-19T06:50:03;36.13;;;4.88;;
72085;SDS011;64750;52.134;5.424;2023-11-19T06:52:31;31.98;;;3.75;;
72085;SDS011;64750;52.134;5.424;2023-11-19T06:54:58;27.95;;;3.63;;
72085;SDS011;64750;52.134;5.424;2023-11-19T06:57:27;33.07;;;4.57;;
72085;SDS011;64750;52.134;5.424;2023-11-19T06:59:55;25.33;;;4.05;;
72085;SDS011;64750;52.134;5.424;2023-11-19T07:02:22;34.05;;;4.07;;
72085;SDS011;64750;52.134;5.424;2023-11-19T07:04:51;27.70;;;3.15;;
72085;SDS011;64750;52.134;5.424;2023-11-19T07:07:18;27.75;;;4.10;;
72085;SDS011;64750;52.134;5.424;2023-11-19T07:09:44;32.13;;;3.80;;
72085;SDS011;64750;52.134;5.424;2023-11-19T07:12:11;35.90;;;4.45;;
72085;SDS011;64750;52.134;5.424;2023-11-19T07:14:39;27.27;;;4.20;;
72085;SDS011;64750;52.134;5.424;2023-11-19T07:17:06;30.38;;;3.40;;
72085;SDS011;64750;52.134;5.424;2023-11-19T07:19:32;39.00;;;3.78;;
72085;SDS011;64750;52.134;5.424;2023-11-19T07:21:59;39.83;;;6.00;;
72085;SDS011;64750;52.134;5.424;2023-11-19T07:24:25;32.72;;;3.83;;
72085;SDS011;64750;52.134;5.424;2023-11-19T07:26:54;30.00;;;3.60;;
72085;SDS011;64750;52.134;5.424;2023-11-19T07:29:20;22.83;;;3.72;;
72085;SDS011;64750;52.134;5.424;2023-11-19T07:31:52;34.15;;;3.85;;
72085;SDS011;64750;52.134;5.424;2023-11-19T07:34:19;25.60;;;3.97;;
72085;SDS011;64750;52.134;5.424;2023-11-19T07:36:45;21.80;;;3.55;;
72085;SDS011;64750;52.134;5.424;2023-11-19T07:39:12;32.47;;;3.95;;
72085;SDS011;64750;52.134;5.424;2023-11-19T07:41:39;29.38;;;4.97;;
72085;SDS011;64750;52.134;5.424;2023-11-19T07:44:05;31.10;;;3.97;;
72085;SDS011;64750;52.134;5.424;2023-11-19T07:46:32;27.60;;;3.27;;
72085;SDS011;64750;52.134;5.424;2023-11-19T07:48:59;33.75;;;3.70;;
72085;SDS011;64750;52.134;5.424;2023-11-19T07:51:25;29.35;;;3.10;;
72085;SDS011;64750;52.134;5.424;2023-11-19T07:53:52;24.13;;;4.05;;
72085;SDS011;64750;52.134;5.424;2023-11-19T07:56:18;25.85;;;3.85;;
72085;SDS011;64750;52.134;5.424;2023-11-19T07:58:45;29.17;;;4.07;;
72085;SDS011;64750;52.134;5.424;2023-11-19T08:01:12;30.98;;;3.85;;
72085;SDS011;64750;52.134;5.424;2023-11-19T08:03:39;32.05;;;3.92;;
72085;SDS011;64750;52.134;5.424;2023-11-19T08:06:06;28.02;;;4.10;;
72085;SDS011;64750;52.134;5.424;2023-11-19T08:08:33;27.65;;;3.42;;
72085;SDS011;64750;52.134;5.424;2023-11-19T08:11:01;30.53;;;3.20;;
72085;SDS011;64750;52.134;5.424;2023-11-19T08:13:27;29.63;;;4.47;;
72085;SDS011;64750;52.134;5.424;2023-11-19T08:15:53;33.22;;;4.30;;
72085;SDS011;64750;52.134;5.424;2023-11-19T08:18:20;26.48;;;3.95;;
72085;SDS011;64750;52.134;5.424;2023-11-19T08:20:47;33.20;;;3.10;;
72085;SDS011;64750;52.134;5.424;2023-11-19T08:23:19;35.20;;;4.57;;
72085;SDS011;64750;52.134;5.424;2023-11-19T08:25:45;31.15;;;4.30;;
72085;SDS011;64750;52.134;5.424;2023-11-19T08:28:12;25.20;;;3.90;;
72085;SDS011;64750;52.134;5.424;2023-11-19T08:30:38;24.40;;;4.38;;
72085;SDS011;64750;52.134;5.424;2023-11-19T08:33:05;25.10;;;4.30;;
72085;SDS011;64750;52.134;5.424;2023-11-19T08:35:34;33.13;;;3.50;;
72085;SDS011;64750;52.134;5.424;2023-11-19T08:38:00;30.08;;;3.92;;
72085;SDS011;64750;52.134;5.424;2023-11-19T08:40:27;29.33;;;4.10;;
72085;SDS011;64750;52.134;5.424;2023-11-19T08:42:56;34.38;;;5.35;;
72085;SDS011;64750;52.134;5.424;2023-11-19T08:45:22;27.85;;;3.55;;
72085;SDS011;64750;52.134;5.424;2023-11-19T08:47:49;22.23;;;3.77;;
72085;SDS011;64750;52.134;5.424;2023-11-19T08:50:16;30.10;;;4.07;;
72085;SDS011;64750;52.134;5.424;2023-11-19T08:52:43;35.70;;;4.43;;
72085;SDS011;64750;52.134;5.424;2023-11-19T08:55:09;32.83;;;4.00;;
72085;SDS011;64750;52.134;5.424;2023-11-19T08:57:36;28.35;;;4.00;;
72085;SDS011;64750;52.134;5.424;2023-11-19T09:00:02;33.37;;;4.23;;
72085;SDS011;64750;52.134;5.424;2023-11-19T09:02:34;28.15;;;3.67;;
72085;SDS011;64750;52.134;5.424;2023-11-19T09:05:04;28.05;;;3.30;;
72085;SDS011;64750;52.134;5.424;2023-11-19T09:07:31;27.70;;;3.33;;
72085;SDS011;64750;52.134;5.424;2023-11-19T09:09:57;20.60;;;3.17;;
72085;SDS011;64750;52.134;5.424;2023-11-19T09:12:24;20.43;;;4.10;;
72085;SDS011;64750;52.134;5.424;2023-11-19T09:14:50;26.17;;;4.43;;
72085;SDS011;64750;52.134;5.424;2023-11-19T09:17:17;31.33;;;4.18;;
72085;SDS011;64750;52.134;5.424;2023-11-19T09:19:46;23.80;;;2.90;;
72085;SDS011;64750;52.134;5.424;2023-11-19T09:22:13;26.75;;;3.90;;
72085;SDS011;64750;52.134;5.424;2023-11-19T09:24:39;22.43;;;2.90;;
72085;SDS011;64750;52.134;5.424;2023-11-19T09:27:06;22.02;;;4.03;;
72085;SDS011;64750;52.134;5.424;2023-11-19T09:29:32;28.48;;;3.90;;
72085;SDS011;64750;52.134;5.424;2023-11-19T09:31:59;28.80;;;3.78;;
72085;SDS011;64750;52.134;5.424;2023-11-19T09:34:26;16.65;;;3.25;;
72085;SDS011;64750;52.134;5.424;2023-11-19T09:36:52;30.40;;;4.60;;
72085;SDS011;64750;52.134;5.424;2023-11-19T09:39:19;28.67;;;3.55;;
72085;SDS011;64750;52.134;5.424;2023-11-19T09:41:46;22.98;;;3.92;;
72085;SDS011;64750;52.134;5.424;2023-11-19T09:44:13;24.90;;;2.95;;
72085;SDS011;64750;52.134;5.424;2023-11-19T09:46:41;30.45;;;4.68;;
72085;SDS011;64750;52.134;5.424;2023-11-19T09:49:08;26.90;;;3.67;;
72085;SDS011;64750;52.134;5.424;2023-11-19T09:51:37;19.45;;;3.15;;
72085;SDS011;64750;52.134;5.424;2023-11-19T09:54:04;27.52;;;3.85;;
72085;SDS011;64750;52.134;5.424;2023-11-19T09:56:31;25.15;;;3.80;;
72085;SDS011;64750;52.134;5.424;2023-11-19T09:58:59;21.45;;;3.00;;
72085;SDS011;64750;52.134;5.424;2023-11-19T10:01:26;34.13;;;4.43;;
72085;SDS011;64750;52.134;5.424;2023-11-19T10:03:55;30.85;;;3.95;;
72085;SDS011;64750;52.134;5.424;2023-11-19T10:06:22;28.58;;;3.83;;
72085;SDS011;64750;52.134;5.424;2023-11-19T10:08:52;29.77;;;3.88;;
72085;SDS011;64750;52.134;5.424;2023-11-19T10:11:19;26.83;;;4.65;;
72085;SDS011;64750;52.134;5.424;2023-11-19T10:13:45;27.20;;;4.80;;
72085;SDS011;64750;52.134;5.424;2023-11-19T10:16:14;21.73;;;3.13;;
72085;SDS011;64750;52.134;5.424;2023-11-19T10:18:48;31.67;;;3.88;;
72085;SDS011;64750;52.134;5.424;2023-11-19T10:21:19;14.80;;;2.90;;
72085;SDS011;64750;52.134;5.424;2023-11-19T10:23:47;25.10;;;3.80;;
72085;SDS011;64750;52.134;5.424;2023-11-19T10:26:18;27.60;;;3.47;;
72085;SDS011;64750;52.134;5.424;2023-11-19T10:28:46;34.55;;;5.20;;
72085;SDS011;64750;52.134;5.424;2023-11-19T10:31:13;29.17;;;3.55;;
72085;SDS011;64750;52.134;5.424;2023-11-19T10:33:44;21.35;;;2.83;;
72085;SDS011;64750;52.134;5.424;2023-11-19T10:36:12;28.70;;;3.47;;
72085;SDS011;64750;52.134;5.424;2023-11-19T10:38:39;17.00;;;3.87;;
72085;SDS011;64750;52.134;5.424;2023-11-19T10:41:06;21.58;;;2.95;;
72085;SDS011;64750;52.134;5.424;2023-11-19T10:43:43;20.35;;;3.75;;
72085;SDS011;64750;52.134;5.424;2023-11-19T10:46:13;27.90;;;3.78;;
72085;SDS011;64750;52.134;5.424;2023-11-19T10:48:40;31.38;;;3.35;;
72085;SDS011;64750;52.134;5.424;2023-11-19T10:51:07;29.57;;;4.07;;
72085;SDS011;64750;52.134;5.424;2023-11-19T10:53:37;28.35;;;3.80;;
72085;SDS011;64750;52.134;5.424;2023-11-19T10:56:06;31.60;;;3.30;;
72085;SDS011;64750;52.134;5.424;2023-11-19T10:58:37;19.60;;;3.22;;
72085;SDS011;64750;52.134;5.424;2023-11-19T11:01:13;24.05;;;3.10;;
72085;SDS011;64750;52.134;5.424;2023-11-19T11:03:45;23.63;;;3.57;;
72085;SDS011;64750;52.134;5.424;2023-11-19T11:06:12;20.98;;;4.45;;
72085;SDS011;64750;52.134;5.424;2023-11-19T11:08:40;21.58;;;3.60;;
72085;SDS011;64750;52.134;5.424;2023-11-19T11:11:07;22.15;;;3.45;;
72085;SDS011;64750;52.134;5.424;2023-11-19T11:13:36;22.50;;;3.15;;
72085;SDS011;64750;52.134;5.424;2023-11-19T11:16:05;30.23;;;3.60;;
72085;SDS011;64750;52.134;5.424;2023-11-19T11:18:34;19.88;;;3.40;;
72085;SDS011;64750;52.134;5.424;2023-11-19T11:21:01;20.30;;;3.20;;
72085;SDS011;64750;52.134;5.424;2023-11-19T11:29:10;21.03;;;3.33;;
72085;SDS011;64750;52.134;5.424;2023-11-19T11:37:32;25.30;;;3.75;;
72085;SDS011;64750;52.134;5.424;2023-11-19T11:40:04;23.02;;;3.15;;
72085;SDS011;64750;52.134;5.424;2023-11-19T11:42:33;27.10;;;3.23;;
72085;SDS011;64750;52.134;5.424;2023-11-19T11:45:09;29.90;;;3.63;;
72085;SDS011;64750;52.134;5.424;2023-11-19T11:50:10;19.73;;;3.88;;
72085;SDS011;64750;52.134;5.424;2023-11-19T11:57:57;21.85;;;3.33;;
72085;SDS011;64750;52.134;5.424;2023-11-19T12:00:30;21.90;;;3.85;;
72085;SDS011;64750;52.134;5.424;2023-11-19T12:02:59;19.38;;;3.08;;
72085;SDS011;64750;52.134;5.424;2023-11-19T12:05:26;20.05;;;3.90;;
72085;SDS011;64750;52.134;5.424;2023-11-19T12:10:24;22.65;;;4.10;;
72085;SDS011;64750;52.134;5.424;2023-11-19T12:12:56;27.38;;;3.60;;
72085;SDS011;64750;52.134;5.424;2023-11-19T12:15:24;14.60;;;3.50;;
72085;SDS011;64750;52.134;5.424;2023-11-19T12:17:53;27.02;;;3.33;;
72085;SDS011;64750;52.134;5.424;2023-11-19T12:20:21;16.63;;;2.50;;
72085;SDS011;64750;52.134;5.424;2023-11-19T12:22:55;21.20;;;3.45;;
72085;SDS011;64750;52.134;5.424;2023-11-19T12:25:21;14.95;;;2.55;;
72085;SDS011;64750;52.134;5.424;2023-11-19T12:27:51;16.95;;;2.92;;
72085;SDS011;64750;52.134;5.424;2023-11-19T12:30:25;17.52;;;3.35;;
72085;SDS011;64750;52.134;5.424;2023-11-19T12:32:53;19.40;;;2.93;;
72085;SDS011;64750;52.134;5.424;2023-11-19T12:35:21;11.32;;;3.20;;
72085;SDS011;64750;52.134;5.424;2023-11-19T12:37:48;13.45;;;2.65;;
72085;SDS011;64750;52.134;5.424;2023-11-19T12:40:19;17.42;;;2.90;;
72085;SDS011;64750;52.134;5.424;2023-11-19T12:42:51;12.43;;;2.50;;
72085;SDS011;64750;52.134;5.424;2023-11-19T12:45:20;18.90;;;2.83;;
72085;SDS011;64750;52.134;5.424;2023-11-19T12:47:48;17.15;;;2.42;;
72085;SDS011;64750;52.134;5.424;2023-11-19T12:50:16;16.55;;;2.15;;
72085;SDS011;64750;52.134;5.424;2023-11-19T12:53:04;16.40;;;2.63;;
72085;SDS011;64750;52.134;5.424;2023-11-19T12:55:30;19.73;;;2.60;;
72085;SDS011;64750;52.134;5.424;2023-11-19T12:57:58;20.63;;;2.63;;
72085;SDS011;64750;52.134;5.424;2023-11-19T13:00:26;19.67;;;3.20;;
72085;SDS011;64750;52.134;5.424;2023-11-19T13:02:54;24.23;;;3.30;;
72085;SDS011;64750;52.134;5.424;2023-11-19T13:08:05;28.85;;;3.75;;
72085;SDS011;64750;52.134;5.424;2023-11-19T13:13:17;17.92;;;3.45;;
72085;SDS011;64750;52.134;5.424;2023-11-19T13:15:43;26.15;;;3.40;;
72085;SDS011;64750;52.134;5.424;2023-11-19T13:18:13;21.77;;;3.13;;
72085;SDS011;64750;52.134;5.424;2023-11-19T13:20:42;19.55;;;3.25;;
72085;SDS011;64750;52.134;5.424;2023-11-19T13:23:09;19.63;;;3.00;;
72085;SDS011;64750;52.134;5.424;2023-11-19T13:25:36;25.75;;;3.33;;
72085;SDS011;64750;52.134;5.424;2023-11-19T13:28:03;21.95;;;3.03;;
72085;SDS011;64750;52.134;5.424;2023-11-19T13:30:30;23.92;;;3.22;;
72085;SDS011;64750;52.134;5.424;2023-11-19T13:32:56;25.38;;;2.95;;
72085;SDS011;64750;52.134;5.424;2023-11-19T13:35:23;22.47;;;4.00;;
72085;SDS011;64750;52.134;5.424;2023-11-19T13:37:51;18.50;;;2.97;;
72085;SDS011;64750;52.134;5.424;2023-11-19T13:40:18;16.38;;;3.17;;
72085;SDS011;64750;52.134;5.424;2023-11-19T13:42:45;16.20;;;2.58;;
72085;SDS011;64750;52.134;5.424;2023-11-19T13:45:12;16.70;;;3.08;;
72085;SDS011;64750;52.134;5.424;2023-11-19T13:47:40;16.53;;;3.13;;
72085;SDS011;64750;52.134;5.424;2023-11-19T13:50:11;23.38;;;4.10;;
72085;SDS011;64750;52.134;5.424;2023-11-19T13:52:40;19.15;;;3.42;;
72085;SDS011;64750;52.134;5.424;2023-11-19T13:55:10;25.58;;;4.05;;
72085;SDS011;64750;52.134;5.424;2023-11-19T13:57:37;21.77;;;3.33;;
72085;SDS011;64750;52.134;5.424;2023-11-19T14:00:06;14.00;;;2.53;;
72085;SDS011;64750;52.134;5.424;2023-11-19T14:02:42;22.05;;;3.75;;
72085;SDS011;64750;52.134;5.424;2023-11-19T14:05:09;21.40;;;2.88;;
72085;SDS011;64750;52.134;5.424;2023-11-19T14:07:39;11.60;;;1.83;;
72085;SDS011;64750;52.134;5.424;2023-11-19T14:10:07;28.98;;;3.90;;
72085;SDS011;64750;52.134;5.424;2023-11-19T14:12:35;18.10;;;2.30;;
72085;SDS011;64750;52.134;5.424;2023-11-19T14:15:04;16.55;;;2.65;;
72085;SDS011;64750;52.134;5.424;2023-11-19T14:17:32;19.05;;;2.33;;
72085;SDS011;64750;52.134;5.424;2023-11-19T14:20:00;17.40;;;2.17;;
72085;SDS011;64750;52.134;5.424;2023-11-19T14:22:27;23.35;;;2.58;;
72085;SDS011;64750;52.134;5.424;2023-11-19T14:24:53;16.80;;;2.93;;
72085;SDS011;64750;52.134;5.424;2023-11-19T14:27:21;16.58;;;2.60;;
72085;SDS011;64750;52.134;5.424;2023-11-19T14:29:48;16.23;;;2.58;;
72085;SDS011;64750;52.134;5.424;2023-11-19T14:32:14;20.20;;;3.28;;
72085;SDS011;64750;52.134;5.424;2023-11-19T14:34:41;21.42;;;2.72;;
72085;SDS011;64750;52.134;5.424;2023-11-19T14:37:08;12.70;;;2.50;;
72085;SDS011;64750;52.134;5.424;2023-11-19T14:39:34;19.25;;;2.88;;
72085;SDS011;64750;52.134;5.424;2023-11-19T14:42:01;21.27;;;2.85;;
72085;SDS011;64750;52.134;5.424;2023-11-19T14:44:30;19.83;;;3.53;;
72085;SDS011;64750;52.134;5.424;2023-11-19T14:46:57;19.65;;;2.28;;
72085;SDS011;64750;52.134;5.424;2023-11-19T14:49:23;19.47;;;2.53;;
72085;SDS011;64750;52.134;5.424;2023-11-19T14:51:50;20.10;;;3.60;;
72085;SDS011;64750;52.134;5.424;2023-11-19T14:54:17;17.52;;;3.20;;
72085;SDS011;64750;52.134;5.424;2023-11-19T14:56:43;24.60;;;3.20;;
72085;SDS011;64750;52.134;5.424;2023-11-19T14:59:10;20.75;;;3.17;;
72085;SDS011;64750;52.134;5.424;2023-11-19T15:01:37;21.47;;;2.80;;
72085;SDS011;64750;52.134;5.424;2023-11-19T15:04:03;24.08;;;3.28;;
72085;SDS011;64750;52.134;5.424;2023-11-19T15:06:32;18.67;;;3.45;;
72085;SDS011;64750;52.134;5.424;2023-11-19T15:09:00;23.73;;;3.72;;